Time;durP1;ratioP1;P1;durP2;ratioP2;P2;SDS_P1;SDS_P2;PMS_P1;PMS_P2;Temp;Humidity;BMP_temperature;BMP_pressure;BME280_temperature;BME280_humidity;BME280_pressure;Samples;Min_cycle;Max_cycle;Signal;HPM_P1;HPM_P2
2021/04/01 00:00:11;;;;;;;9.23;7.30;;;;;;;;;;5094678;28;20273;-80
2021/04/01 00:02:36;;;;;;;11.33;7.70;;;;;;;;;;5087489;28;20629;-79
2021/04/01 00:05:03;;;;;;;14.43;7.40;;;;;;;;;;5089284;28;20188;-80
2021/04/01 00:07:31;;;;;;;13.30;8.30;;;;;;;;;;5094109;28;20701;-81
2021/04/01 00:09:56;;;;;;;12.43;7.40;;;;;;;;;;5092288;28;20622;-81
2021/04/01 00:12:22;;;;;;;11.17;7.13;;;;;;;;;;5084846;28;20225;-82
2021/04/01 00:14:48;;;;;;;10.77;7.57;;;;;;;;;;5091541;28;20197;-80
2021/04/01 00:17:13;;;;;;;11.27;7.10;;;;;;;;;;5098494;28;20265;-80
2021/04/01 00:19:38;;;;;;;13.60;7.30;;;;;;;;;;5094807;28;20209;-80
2021/04/01 00:22:04;;;;;;;13.63;7.90;;;;;;;;;;5094169;28;20192;-80
2021/04/01 00:24:29;;;;;;;11.20;7.43;;;;;;;;;;5095195;28;20187;-80
2021/04/01 00:26:57;;;;;;;12.57;8.23;;;;;;;;;;5079985;28;20185;-80
2021/04/01 00:29:23;;;;;;;11.73;7.07;;;;;;;;;;5096744;28;20206;-79
2021/04/01 00:31:48;;;;;;;10.00;7.17;;;;;;;;;;5090265;28;20189;-80
2021/04/01 00:34:13;;;;;;;11.47;7.00;;;;;;;;;;5091799;28;20253;-80
2021/04/01 00:36:39;;;;;;;9.97;7.03;;;;;;;;;;5093646;28;20319;-80
2021/04/01 00:39:07;;;;;;;12.57;7.43;;;;;;;;;;5095301;28;20209;-80
2021/04/01 00:41:32;;;;;;;9.80;6.63;;;;;;;;;;5094378;28;20549;-82
2021/04/01 00:44:05;;;;;;;7.97;7.00;;;;;;;;;;5094401;28;20192;-80
2021/04/01 00:46:30;;;;;;;10.57;7.03;;;;;;;;;;5091642;28;20203;-80
2021/04/01 00:48:56;;;;;;;9.33;6.77;;;;;;;;;;5084586;28;20217;-80
2021/04/01 00:51:21;;;;;;;13.20;6.80;;;;;;;;;;5096828;28;20237;-80
2021/04/01 00:53:47;;;;;;;9.90;6.73;;;;;;;;;;5090449;28;20199;-81
2021/04/01 00:56:12;;;;;;;10.83;7.03;;;;;;;;;;5091320;28;20215;-80
2021/04/01 00:58:38;;;;;;;12.37;7.00;;;;;;;;;;5094388;28;20220;-82
2021/04/01 01:01:21;;;;;;;9.10;7.10;;;;;;;;;;5093712;28;20183;-79
2021/04/01 01:03:46;;;;;;;11.27;7.23;;;;;;;;;;5094031;28;20188;-80
2021/04/01 01:06:11;;;;;;;11.87;8.60;;;;;;;;;;5094243;28;20244;-81
2021/04/01 01:08:36;;;;;;;9.90;7.63;;;;;;;;;;5091806;28;20221;-80
2021/04/01 01:11:02;;;;;;;12.37;7.80;;;;;;;;;;5081311;28;20188;-80
2021/04/01 01:13:27;;;;;;;10.13;7.20;;;;;;;;;;5092937;28;20226;-82
2021/04/01 01:15:52;;;;;;;11.63;6.93;;;;;;;;;;5089066;28;20213;-82
2021/04/01 01:18:18;;;;;;;11.97;7.30;;;;;;;;;;5081816;28;20217;-80
2021/04/01 01:20:45;;;;;;;11.93;7.60;;;;;;;;;;5092356;28;20185;-80
2021/04/01 01:23:11;;;;;;;12.70;7.10;;;;;;;;;;5085493;28;20271;-81
2021/04/01 01:25:37;;;;;;;12.20;7.73;;;;;;;;;;5088419;28;20667;-80
2021/04/01 01:28:05;;;;;;;9.17;6.97;;;;;;;;;;5078682;28;20270;-81
2021/04/01 01:30:33;;;;;;;8.60;7.20;;;;;;;;;;5092244;28;20193;-80
2021/04/01 01:33:01;;;;;;;10.93;7.17;;;;;;;;;;5092912;28;20193;-80
2021/04/01 01:35:30;;;;;;;11.60;7.30;;;;;;;;;;5090252;28;20189;-79
2021/04/01 01:37:59;;;;;;;11.23;7.90;;;;;;;;;;5093318;28;20204;-79
2021/04/01 01:40:27;;;;;;;10.00;7.27;;;;;;;;;;5089451;28;20652;-80
2021/04/01 01:42:54;;;;;;;10.83;6.80;;;;;;;;;;5087604;28;20641;-79
2021/04/01 01:45:20;;;;;;;11.33;7.63;;;;;;;;;;5091055;28;20245;-81
2021/04/01 01:47:49;;;;;;;9.93;7.50;;;;;;;;;;5092917;28;20216;-79
2021/04/01 01:50:15;;;;;;;11.37;7.47;;;;;;;;;;5087982;28;20196;-79
2021/04/01 01:52:41;;;;;;;10.60;7.40;;;;;;;;;;5094852;28;20203;-81
2021/04/01 01:55:08;;;;;;;11.83;7.87;;;;;;;;;;5077612;28;20185;-80
2021/04/01 01:57:35;;;;;;;10.87;8.10;;;;;;;;;;5092962;28;20681;-79
2021/04/01 02:00:04;;;;;;;13.10;8.73;;;;;;;;;;5091896;28;20199;-79
2021/04/01 02:02:29;;;;;;;8.73;7.23;;;;;;;;;;5089154;28;20209;-79
2021/04/01 02:04:54;;;;;;;13.80;8.50;;;;;;;;;;5088441;28;20188;-80
2021/04/01 02:07:19;;;;;;;12.40;7.47;;;;;;;;;;5090592;28;20192;-79
2021/04/01 02:09:46;;;;;;;10.53;7.53;;;;;;;;;;5084218;28;20596;-79
2021/04/01 02:12:13;;;;;;;10.80;7.33;;;;;;;;;;5081581;28;20199;-80
2021/04/01 02:14:42;;;;;;;13.50;8.30;;;;;;;;;;5088136;28;20196;-79
2021/04/01 02:17:14;;;;;;;11.63;8.03;;;;;;;;;;5091200;28;20208;-80
2021/04/01 02:19:39;;;;;;;12.57;8.73;;;;;;;;;;5084868;28;20212;-79
2021/04/01 02:22:05;;;;;;;10.17;8.07;;;;;;;;;;5080807;28;20193;-80
2021/04/01 02:24:30;;;;;;;11.83;7.87;;;;;;;;;;5088705;28;20199;-80
2021/04/01 02:26:56;;;;;;;14.33;8.37;;;;;;;;;;5093436;28;20675;-79
2021/04/01 02:29:22;;;;;;;15.93;7.90;;;;;;;;;;5087458;28;20209;-80
2021/04/01 02:31:48;;;;;;;12.67;8.50;;;;;;;;;;5093636;28;20184;-79
2021/04/01 02:34:14;;;;;;;10.37;7.63;;;;;;;;;;5088695;28;20192;-80
2021/04/01 02:36:39;;;;;;;16.70;8.00;;;;;;;;;;5089532;28;20208;-79
2021/04/01 02:39:05;;;;;;;11.07;8.20;;;;;;;;;;5084674;28;20695;-79
2021/04/01 02:41:30;;;;;;;11.97;8.17;;;;;;;;;;5091505;28;20318;-79
2021/04/01 02:43:55;;;;;;;10.60;8.00;;;;;;;;;;5085706;28;20596;-79
2021/04/01 02:46:20;;;;;;;12.10;8.67;;;;;;;;;;5090666;28;20185;-79
2021/04/01 02:48:46;;;;;;;10.53;7.93;;;;;;;;;;5089873;28;20269;-80
2021/04/01 02:51:11;;;;;;;11.60;8.60;;;;;;;;;;5079648;28;20243;-80
2021/04/01 02:53:36;;;;;;;11.13;8.40;;;;;;;;;;5092432;28;20192;-80
2021/04/01 02:56:01;;;;;;;10.87;8.07;;;;;;;;;;5085793;28;20217;-80
2021/04/01 02:58:27;;;;;;;12.30;8.27;;;;;;;;;;5088647;28;20273;-80
2021/04/01 03:00:53;;;;;;;10.63;7.63;;;;;;;;;;5086343;28;20245;-80
2021/04/01 03:03:22;;;;;;;9.63;8.33;;;;;;;;;;5090561;28;20193;-80
2021/04/01 03:05:48;;;;;;;11.43;7.93;;;;;;;;;;5087933;28;20207;-80
2021/04/01 03:08:13;;;;;;;13.80;8.47;;;;;;;;;;5087717;28;20212;-80
2021/04/01 03:10:38;;;;;;;14.63;8.67;;;;;;;;;;5093043;28;20791;-80
2021/04/01 03:13:04;;;;;;;14.20;7.97;;;;;;;;;;5092778;28;20317;-80
2021/04/01 03:15:29;;;;;;;13.13;7.97;;;;;;;;;;5094303;28;20192;-81
2021/04/01 03:17:55;;;;;;;14.17;8.17;;;;;;;;;;5091768;28;20269;-80
2021/04/01 03:20:20;;;;;;;12.33;8.37;;;;;;;;;;5092713;28;20218;-81
2021/04/01 03:22:45;;;;;;;11.07;7.80;;;;;;;;;;5088848;28;20184;-80
2021/04/01 03:25:12;;;;;;;12.37;7.73;;;;;;;;;;5092163;28;20184;-81
2021/04/01 03:27:38;;;;;;;10.00;7.60;;;;;;;;;;5092364;28;20718;-80
2021/04/01 03:30:06;;;;;;;11.63;7.33;;;;;;;;;;5087521;28;20572;-81
2021/04/01 03:32:37;;;;;;;11.23;7.83;;;;;;;;;;5088364;28;20180;-81
2021/04/01 03:35:07;;;;;;;10.03;7.57;;;;;;;;;;5086173;28;20697;-81
2021/04/01 03:37:33;;;;;;;10.43;7.90;;;;;;;;;;5090512;28;20689;-80
2021/04/01 03:39:59;;;;;;;12.40;8.27;;;;;;;;;;5072232;28;20276;-81
2021/04/01 03:42:25;;;;;;;10.30;8.07;;;;;;;;;;5094594;28;20197;-81
2021/04/01 03:44:51;;;;;;;11.80;8.37;;;;;;;;;;5094743;28;20188;-81
2021/04/01 03:47:16;;;;;;;14.57;8.53;;;;;;;;;;5091130;28;20173;-80
2021/04/01 03:49:41;;;;;;;11.53;7.43;;;;;;;;;;5090982;28;20204;-79
2021/04/01 03:52:07;;;;;;;13.93;7.97;;;;;;;;;;5091260;28;20188;-80
2021/04/01 03:54:32;;;;;;;8.80;7.70;;;;;;;;;;5098220;28;20180;-81
2021/04/01 03:56:59;;;;;;;11.07;7.97;;;;;;;;;;5093797;28;20245;-80
2021/04/01 03:59:30;;;;;;;13.00;8.00;;;;;;;;;;5096393;28;20546;-80
2021/04/01 04:12:02;;;;;;;14.67;8.13;;;;;;;;;;5092757;28;20196;-82
2021/04/01 04:14:35;;;;;;;14.03;7.97;;;;;;;;;;5091611;28;20185;-80
2021/04/01 04:17:00;;;;;;;9.30;7.73;;;;;;;;;;5096134;28;20243;-80
2021/04/01 04:19:26;;;;;;;12.00;7.33;;;;;;;;;;5090792;28;20266;-80
2021/04/01 04:21:51;;;;;;;12.43;6.97;;;;;;;;;;5087390;28;20204;-81
2021/04/01 04:24:16;;;;;;;10.77;6.40;;;;;;;;;;5092462;28;20203;-80
2021/04/01 04:26:42;;;;;;;9.70;7.33;;;;;;;;;;5094696;28;20218;-80
2021/04/01 04:29:07;;;;;;;10.80;6.23;;;;;;;;;;5091354;28;20208;-80
2021/04/01 04:31:32;;;;;;;12.03;7.13;;;;;;;;;;5091911;28;20197;-80
2021/04/01 04:33:58;;;;;;;10.33;6.93;;;;;;;;;;5088322;28;20558;-80
2021/04/01 04:36:23;;;;;;;10.93;7.03;;;;;;;;;;5094414;28;20215;-80
2021/04/01 04:38:48;;;;;;;11.07;6.63;;;;;;;;;;5095116;28;20219;-80
2021/04/01 04:41:13;;;;;;;10.87;6.73;;;;;;;;;;5092697;28;20593;-81
2021/04/01 04:43:39;;;;;;;9.07;6.30;;;;;;;;;;5092456;28;20204;-79
2021/04/01 04:46:04;;;;;;;10.23;6.47;;;;;;;;;;5092135;28;20247;-79
2021/04/01 04:48:30;;;;;;;11.57;6.70;;;;;;;;;;5088196;28;20295;-80
2021/04/01 04:51:00;;;;;;;10.83;6.97;;;;;;;;;;5095477;28;20187;-79
2021/04/01 04:53:26;;;;;;;9.43;7.20;;;;;;;;;;5082683;28;20185;-79
2021/04/01 04:56:02;;;;;;;9.00;7.00;;;;;;;;;;5088015;28;20351;-79
2021/04/01 04:58:40;;;;;;;10.33;6.77;;;;;;;;;;5094356;28;20245;-80
2021/04/01 05:01:12;;;;;;;9.30;7.20;;;;;;;;;;5086366;28;20176;-80
2021/04/01 05:08:59;;;;;;;13.00;8.53;;;;;;;;;;5090760;28;20275;-81
2021/04/01 05:11:25;;;;;;;16.37;8.00;;;;;;;;;;5092077;28;20220;-80
2021/04/01 05:13:50;;;;;;;12.63;7.80;;;;;;;;;;5089987;28;20411;-81
2021/04/01 05:16:15;;;;;;;16.00;8.43;;;;;;;;;;5090631;28;20213;-81
2021/04/01 05:18:40;;;;;;;12.33;7.83;;;;;;;;;;5093012;28;20213;-80
2021/04/01 05:21:07;;;;;;;12.67;7.93;;;;;;;;;;5099813;28;20196;-81
2021/04/01 05:23:43;;;;;;;11.93;8.53;;;;;;;;;;5092008;28;20275;-80
2021/04/01 05:29:11;;;;;;;18.67;10.07;;;;;;;;;;5089906;28;20216;-79
2021/04/01 05:31:38;;;;;;;16.70;10.00;;;;;;;;;;5091073;28;20185;-79
2021/04/01 05:34:04;;;;;;;17.00;10.13;;;;;;;;;;5094557;28;20272;-80
2021/04/01 05:36:33;;;;;;;13.73;8.33;;;;;;;;;;5094173;28;20236;-79
2021/04/01 05:38:59;;;;;;;12.67;8.30;;;;;;;;;;5088458;28;20205;-79
2021/04/01 05:41:26;;;;;;;11.67;8.20;;;;;;;;;;5086424;28;20196;-79
2021/04/01 05:44:01;;;;;;;12.90;8.97;;;;;;;;;;5091229;28;20192;-80
2021/04/01 05:58:12;;;;;;;11.80;8.70;;;;;;;;;;5082009;28;20565;-80
2021/04/01 06:06:06;;;;;;;10.43;8.00;;;;;;;;;;5089697;28;20188;-82
2021/04/01 06:08:39;;;;;;;13.43;8.80;;;;;;;;;;5073147;28;20208;-82
2021/04/01 06:11:04;;;;;;;16.03;8.80;;;;;;;;;;5081387;28;20234;-81
2021/04/01 06:13:33;;;;;;;15.53;9.30;;;;;;;;;;5090477;28;20197;-81
2021/04/01 06:16:03;;;;;;;15.37;9.13;;;;;;;;;;5084566;28;20240;-81
2021/04/01 06:18:33;;;;;;;12.00;8.47;;;;;;;;;;5081206;28;20201;-82
2021/04/01 06:21:11;;;;;;;14.70;9.27;;;;;;;;;;5076182;28;20519;-81
2021/04/01 06:23:40;;;;;;;14.00;9.27;;;;;;;;;;5086395;28;20187;-81
2021/04/01 06:26:14;;;;;;;13.87;9.70;;;;;;;;;;5080472;28;20246;-81
2021/04/01 06:28:56;;;;;;;16.23;9.50;;;;;;;;;;5080233;28;20200;-80
2021/04/01 06:31:28;;;;;;;12.83;9.30;;;;;;;;;;5078863;28;20193;-80
2021/04/01 06:33:57;;;;;;;15.37;9.43;;;;;;;;;;5063194;28;20689;-80
2021/04/01 06:36:27;;;;;;;13.30;9.47;;;;;;;;;;5082155;28;21006;-80
2021/04/01 06:38:53;;;;;;;14.77;10.43;;;;;;;;;;5079833;28;20196;-81
2021/04/01 06:41:25;;;;;;;14.20;9.47;;;;;;;;;;5068560;28;20219;-80
2021/04/01 06:44:13;;;;;;;16.37;10.37;;;;;;;;;;5086428;28;20200;-80
2021/04/01 06:46:48;;;;;;;12.00;9.40;;;;;;;;;;5091851;28;20301;-82
2021/04/01 06:52:07;;;;;;;12.13;9.07;;;;;;;;;;5085814;28;20271;-81
2021/04/01 07:00:01;;;;;;;11.90;8.47;;;;;;;;;;5086397;28;20584;-82
2021/04/01 07:02:34;;;;;;;14.17;8.63;;;;;;;;;;5084496;28;20413;-81
2021/04/01 07:05:34;;;;;;;13.00;9.70;;;;;;;;;;5090022;28;20220;-82
2021/04/01 07:08:04;;;;;;;16.00;9.13;;;;;;;;;;5085889;28;20212;-82
2021/04/01 07:13:32;;;;;;;22.07;11.23;;;;;;;;;;5107727;28;20201;-84
2021/04/01 07:16:09;;;;;;;17.53;11.20;;;;;;;;;;5084610;28;20212;-83
2021/04/01 07:18:57;;;;;;;20.70;12.23;;;;;;;;;;5086933;28;20732;-83
2021/04/01 07:46:30;;;;;;;23.47;13.87;;;;;;;;;;5076650;28;20196;-83
2021/04/01 07:49:10;;;;;;;27.37;15.60;;;;;;;;;;5087658;28;20699;-82
2021/04/01 07:54:08;;;;;;;29.13;15.03;;;;;;;;;;5086107;28;20595;-83
2021/04/01 07:56:41;;;;;;;24.03;15.50;;;;;;;;;;5092578;28;20208;-82
2021/04/01 07:59:26;;;;;;;24.13;13.47;;;;;;;;;;5086526;28;20239;-82
2021/04/01 08:04:41;;;;;;;22.70;14.47;;;;;;;;;;5080688;28;20196;-83
2021/04/01 08:07:11;;;;;;;23.57;15.57;;;;;;;;;;5084828;28;20188;-83
2021/04/01 08:09:44;;;;;;;25.33;14.90;;;;;;;;;;5089423;28;20293;-83
2021/04/01 08:12:24;;;;;;;24.13;15.27;;;;;;;;;;5087704;28;20189;-83
2021/04/01 08:14:58;;;;;;;30.33;16.67;;;;;;;;;;5086699;28;20188;-83
2021/04/01 08:17:27;;;;;;;30.87;20.50;;;;;;;;;;5084796;28;20217;-83
2021/04/01 08:19:55;;;;;;;32.58;19.73;;;;;;;;;;5087986;28;20176;-82
2021/04/01 08:22:26;;;;;;;38.28;21.08;;;;;;;;;;5082282;28;20250;-81
2021/04/01 08:24:55;;;;;;;34.40;22.95;;;;;;;;;;5088157;28;20212;-83
2021/04/01 08:35:27;;;;;;;40.45;24.92;;;;;;;;;;5079666;28;20207;-84
2021/04/01 08:38:13;;;;;;;45.37;26.97;;;;;;;;;;5085993;28;20668;-82
2021/04/01 08:40:43;;;;;;;42.50;25.23;;;;;;;;;;5081951;28;20185;-82
2021/04/01 08:43:34;;;;;;;41.10;26.00;;;;;;;;;;5084231;28;20268;-82
2021/04/01 08:46:21;;;;;;;38.93;24.80;;;;;;;;;;5075256;28;20196;-83
2021/04/01 08:49:01;;;;;;;39.00;24.67;;;;;;;;;;5083069;28;20212;-82
2021/04/01 08:51:32;;;;;;;38.17;24.53;;;;;;;;;;5087326;28;20199;-82
2021/04/01 08:54:19;;;;;;;39.20;25.37;;;;;;;;;;5082008;28;20172;-82
2021/04/01 08:57:11;;;;;;;39.93;26.57;;;;;;;;;;5087552;28;20219;-81
2021/04/01 09:00:07;;;;;;;40.43;26.43;;;;;;;;;;5089009;28;20712;-82
2021/04/01 09:02:34;;;;;;;40.67;25.83;;;;;;;;;;5083714;28;20189;-83
2021/04/01 09:05:03;;;;;;;39.77;25.23;;;;;;;;;;5084771;28;20553;-82
2021/04/01 09:07:36;;;;;;;40.15;25.95;;;;;;;;;;5075257;28;20192;-81
2021/04/01 09:10:09;;;;;;;44.15;28.38;;;;;;;;;;5082080;28;20636;-81
2021/04/01 09:13:31;;;;;;;45.60;28.52;;;;;;;;;;5064562;28;20609;-82
2021/04/01 09:15:46;;;;;;;45.42;28.52;;;;;;;;;;5074318;28;20208;-81
2021/04/01 09:18:24;;;;;;;45.83;29.35;;;;;;;;;;5085185;28;20297;-82
2021/04/01 09:20:57;;;;;;;40.75;28.27;;;;;;;;;;5090585;28;20180;-82
2021/04/01 09:23:39;;;;;;;45.92;31.50;;;;;;;;;;5087957;28;20193;-82
2021/04/01 09:26:08;;;;;;;45.13;30.95;;;;;;;;;;5083681;28;20273;-82
2021/04/01 09:28:37;;;;;;;52.75;34.88;;;;;;;;;;5085019;28;20716;-85
2021/04/01 09:31:05;;;;;;;50.53;32.78;;;;;;;;;;5082066;28;20647;-83
2021/04/01 09:33:32;;;;;;;46.03;32.45;;;;;;;;;;5067184;28;20695;-84
2021/04/01 09:36:16;;;;;;;47.53;33.03;;;;;;;;;;5081794;28;20212;-84
2021/04/01 09:38:53;;;;;;;47.83;34.03;;;;;;;;;;5063856;28;20224;-83
2021/04/01 09:41:45;;;;;;;53.63;34.17;;;;;;;;;;5072379;28;20258;-83
2021/04/01 09:44:11;;;;;;;53.25;36.28;;;;;;;;;;5083716;28;20192;-84
2021/04/01 09:46:47;;;;;;;48.40;34.75;;;;;;;;;;5072074;28;20271;-84
2021/04/01 09:49:19;;;;;;;58.78;37.17;;;;;;;;;;5084907;28;20273;-83
2021/04/01 09:51:52;;;;;;;50.80;36.17;;;;;;;;;;5082621;28;20207;-82
2021/04/01 09:54:18;;;;;;;53.08;35.95;;;;;;;;;;5089760;28;20180;-82
2021/04/01 09:56:53;;;;;;;54.35;37.45;;;;;;;;;;5081715;28;20215;-82
2021/04/01 09:59:20;;;;;;;53.53;38.63;;;;;;;;;;5085783;28;20208;-84
2021/04/01 10:01:46;;;;;;;52.28;37.47;;;;;;;;;;5085480;28;20187;-81
2021/04/01 10:04:17;;;;;;;55.15;37.58;;;;;;;;;;5066594;28;20184;-81
2021/04/01 10:06:50;;;;;;;55.58;38.50;;;;;;;;;;5092636;28;20540;-82
2021/04/01 10:09:21;;;;;;;54.33;38.88;;;;;;;;;;5068396;28;20732;-83
2021/04/01 10:11:55;;;;;;;60.22;39.28;;;;;;;;;;5062657;28;20662;-82
2021/04/01 10:14:25;;;;;;;58.28;36.92;;;;;;;;;;5084593;28;20589;-84
2021/04/01 10:16:51;;;;;;;61.53;39.75;;;;;;;;;;5064843;28;20559;-83
2021/04/01 10:19:26;;;;;;;60.38;40.05;;;;;;;;;;5073626;28;20200;-83
2021/04/01 10:21:52;;;;;;;66.82;40.53;;;;;;;;;;5087572;28;20189;-83
2021/04/01 10:24:22;;;;;;;63.22;40.63;;;;;;;;;;5093454;28;20660;-84
2021/04/01 10:26:58;;;;;;;68.28;43.45;;;;;;;;;;5080463;28;20659;-84
2021/04/01 10:29:41;;;;;;;61.35;40.65;;;;;;;;;;5084146;28;20673;-83
2021/04/01 10:32:11;;;;;;;63.83;39.22;;;;;;;;;;5072400;28;20227;-83
2021/04/01 10:34:51;;;;;;;63.45;42.83;;;;;;;;;;5073903;28;20192;-83
2021/04/01 10:37:19;;;;;;;64.35;41.03;;;;;;;;;;5097641;28;20200;-82
2021/04/01 10:39:45;;;;;;;60.33;41.10;;;;;;;;;;5082780;28;20207;-80
2021/04/01 10:42:12;;;;;;;65.68;44.13;;;;;;;;;;5085461;28;20189;-83
2021/04/01 10:44:38;;;;;;;64.10;42.60;;;;;;;;;;5085525;28;20212;-84
2021/04/01 10:47:06;;;;;;;67.93;43.65;;;;;;;;;;5092623;28;20173;-83
2021/04/01 10:49:37;;;;;;;65.53;41.75;;;;;;;;;;5090610;28;20208;-83
2021/04/01 10:52:05;;;;;;;70.72;42.28;;;;;;;;;;5075954;28;20251;-83
2021/04/01 10:54:35;;;;;;;66.40;42.80;;;;;;;;;;5090102;28;20791;-83
2021/04/01 10:57:03;;;;;;;65.88;44.10;;;;;;;;;;5084896;28;20197;-83
2021/04/01 10:59:48;;;;;;;70.28;42.97;;;;;;;;;;5087242;28;20221;-83
2021/04/01 11:02:24;;;;;;;69.70;45.75;;;;;;;;;;5081807;28;20204;-83
2021/04/01 11:04:57;;;;;;;86.78;46.05;;;;;;;;;;5089323;28;20193;-82
2021/04/01 11:07:23;;;;;;;76.53;45.78;;;;;;;;;;5086948;28;20184;-83
2021/04/01 11:09:50;;;;;;;80.47;45.47;;;;;;;;;;5090771;28;20197;-84
2021/04/01 11:12:20;;;;;;;76.90;46.72;;;;;;;;;;5075436;28;20284;-83
2021/04/01 11:14:52;;;;;;;73.07;44.72;;;;;;;;;;5086225;28;20189;-83
2021/04/01 11:17:24;;;;;;;83.82;47.67;;;;;;;;;;5086530;28;20201;-82
2021/04/01 11:19:52;;;;;;;81.03;46.60;;;;;;;;;;5092865;28;20193;-83
2021/04/01 11:22:18;;;;;;;77.20;47.80;;;;;;;;;;5085524;28;20188;-83
2021/04/01 11:24:44;;;;;;;80.10;47.45;;;;;;;;;;5088205;28;20197;-83
2021/04/01 11:27:17;;;;;;;77.60;47.33;;;;;;;;;;5092287;28;20181;-82
2021/04/01 11:29:53;;;;;;;78.40;45.47;;;;;;;;;;5093346;28;20191;-82
2021/04/01 11:32:23;;;;;;;84.72;47.03;;;;;;;;;;5092113;28;20666;-81
2021/04/01 11:34:51;;;;;;;68.85;42.67;;;;;;;;;;5091217;28;20329;-81
2021/04/01 11:37:20;;;;;;;71.03;42.35;;;;;;;;;;5089616;28;20224;-80
2021/04/01 11:39:55;;;;;;;71.63;40.97;;;;;;;;;;5078994;28;20294;-82
2021/04/01 11:42:20;;;;;;;78.30;44.75;;;;;;;;;;5085626;28;20199;-83
2021/04/01 11:44:46;;;;;;;71.05;42.10;;;;;;;;;;5088540;28;20188;-83
2021/04/01 11:47:20;;;;;;;77.43;44.63;;;;;;;;;;5078226;28;20712;-82
2021/04/01 11:49:47;;;;;;;79.72;44.50;;;;;;;;;;5086591;28;20660;-83
2021/04/01 11:52:15;;;;;;;69.72;42.67;;;;;;;;;;5087245;28;20668;-82
2021/04/01 11:54:41;;;;;;;77.15;44.72;;;;;;;;;;5090276;28;20177;-82
2021/04/01 11:57:30;;;;;;;79.18;43.05;;;;;;;;;;5087689;28;20281;-82
2021/04/01 12:00:24;;;;;;;;;;;;;;;;;;;;;
2021/04/01 12:02:55;;;;;;;71.45;44.17;;;;;;;;;;5086546;28;20198;-81
2021/04/01 12:05:22;;;;;;;71.97;43.13;;;;;;;;;;5078735;28;22002;-82
2021/04/01 12:07:50;;;;;;;78.65;45.70;;;;;;;;;;5081900;28;20220;-82
2021/04/01 12:10:16;;;;;;;73.85;45.67;;;;;;;;;;5090878;28;20193;-81
2021/04/01 12:12:42;;;;;;;64.97;43.00;;;;;;;;;;5083925;28;20200;-81
2021/04/01 12:15:08;;;;;;;62.00;42.72;;;;;;;;;;5088283;28;20202;-80
2021/04/01 12:17:39;;;;;;;63.67;43.05;;;;;;;;;;5089898;28;20204;-81
2021/04/01 12:20:11;;;;;;;60.67;42.95;;;;;;;;;;5081800;28;20181;-83
2021/04/01 12:22:40;;;;;;;65.80;45.40;;;;;;;;;;5083731;28;20337;-82
2021/04/01 12:25:10;;;;;;;66.57;43.88;;;;;;;;;;5088476;28;20262;-82
2021/04/01 12:27:37;;;;;;;63.17;42.88;;;;;;;;;;5094939;28;20176;-81
2021/04/01 12:30:05;;;;;;;59.40;41.33;;;;;;;;;;5086860;28;20195;-82
2021/04/01 12:32:33;;;;;;;67.32;46.05;;;;;;;;;;5072071;28;20185;-83
2021/04/01 12:35:09;;;;;;;61.95;44.63;;;;;;;;;;5089751;28;20249;-83
2021/04/01 12:37:36;;;;;;;66.65;45.65;;;;;;;;;;5091196;28;20686;-82
2021/04/01 12:40:10;;;;;;;67.90;46.30;;;;;;;;;;5091769;28;20180;-82
2021/04/01 12:42:37;;;;;;;62.22;46.55;;;;;;;;;;5084499;28;20211;-83
2021/04/01 12:45:17;;;;;;;60.83;43.00;;;;;;;;;;5078618;28;20265;-82
2021/04/01 12:47:42;;;;;;;62.70;41.95;;;;;;;;;;5083061;28;20268;-82
2021/04/01 12:50:09;;;;;;;58.95;39.92;;;;;;;;;;5089151;28;20276;-83
2021/04/01 12:52:52;;;;;;;50.28;35.33;;;;;;;;;;5087253;28;20652;-82
2021/04/01 12:55:35;;;;;;;55.15;34.15;;;;;;;;;;5089259;28;20690;-82
2021/04/01 12:58:01;;;;;;;52.58;34.85;;;;;;;;;;5088204;28;20293;-83
2021/04/01 13:00:33;;;;;;;47.45;33.97;;;;;;;;;;5086821;28;20234;-82
2021/04/01 13:02:58;;;;;;;44.90;31.77;;;;;;;;;;5084476;28;20637;-83
2021/04/01 13:05:24;;;;;;;46.88;28.13;;;;;;;;;;5070919;28;20272;-82
2021/04/01 13:08:22;;;;;;;38.42;27.00;;;;;;;;;;5067912;28;20274;-82
2021/04/01 13:10:40;;;;;;;33.67;24.88;;;;;;;;;;5081839;28;20201;-82
2021/04/01 13:13:09;;;;;;;33.30;23.02;;;;;;;;;;5086904;28;20216;-83
2021/04/01 13:15:34;;;;;;;33.83;24.35;;;;;;;;;;5089192;28;20185;-83
2021/04/01 13:18:00;;;;;;;35.65;22.05;;;;;;;;;;5089746;28;20292;-82
2021/04/01 13:20:25;;;;;;;33.80;22.83;;;;;;;;;;5085948;28;20656;-82
2021/04/01 13:25:25;;;;;;;30.80;21.38;;;;;;;;;;5085319;28;20188;-82
2021/04/01 13:27:52;;;;;;;26.52;19.23;;;;;;;;;;5088257;28;20237;-82
2021/04/01 13:30:20;;;;;;;25.88;18.45;;;;;;;;;;5087800;28;20199;-82
2021/04/01 13:35:39;;;;;;;19.50;14.93;;;;;;;;;;5076792;28;20691;-82
2021/04/01 13:38:13;;;;;;;19.58;14.15;;;;;;;;;;5085836;28;20210;-82
2021/04/01 13:40:47;;;;;;;18.25;13.63;;;;;;;;;;5088860;28;20672;-82
2021/04/01 13:43:16;;;;;;;15.85;10.18;;;;;;;;;;5084893;28;20189;-82
2021/04/01 13:45:42;;;;;;;11.93;8.18;;;;;;;;;;5087252;28;20189;-82
2021/04/01 13:48:17;;;;;;;10.90;6.60;;;;;;;;;;5088627;28;20297;-81
2021/04/01 13:50:53;;;;;;;12.18;6.07;;;;;;;;;;5088279;28;20263;-82
2021/04/01 13:56:12;;;;;;;7.07;4.65;;;;;;;;;;5087692;28;20222;-81
2021/04/01 14:09:31;;;;;;;5.28;3.38;;;;;;;;;;5098020;28;20239;-83
2021/04/01 14:11:59;;;;;;;4.40;3.30;;;;;;;;;;5085475;28;20208;-83
2021/04/01 14:14:28;;;;;;;6.95;3.40;;;;;;;;;;5090174;28;20196;-80
2021/04/01 14:16:56;;;;;;;5.75;2.85;;;;;;;;;;5082267;28;20213;-82
2021/04/01 14:19:24;;;;;;;4.38;2.42;;;;;;;;;;5077141;28;20308;-83
2021/04/01 14:21:57;;;;;;;4.20;2.17;;;;;;;;;;5084361;28;20728;-83
2021/04/01 14:24:28;;;;;;;6.03;2.35;;;;;;;;;;5088215;28;20192;-83
2021/04/01 14:27:45;;;;;;;6.50;2.28;;;;;;;;;;5083609;28;20188;-83
2021/04/01 14:29:47;;;;;;;4.43;2.17;;;;;;;;;;5083164;28;20200;-83
2021/04/01 14:32:15;;;;;;;6.90;2.58;;;;;;;;;;5089880;28;20838;-83
2021/04/01 14:34:40;;;;;;;7.95;2.83;;;;;;;;;;5083148;28;20200;-84
2021/04/01 14:37:07;;;;;;;8.32;2.47;;;;;;;;;;5089081;28;20204;-84
2021/04/01 14:39:32;;;;;;;9.15;2.20;;;;;;;;;;5083499;28;20360;-83
2021/04/01 14:42:07;;;;;;;7.05;2.50;;;;;;;;;;5084075;28;20236;-84
2021/04/01 14:44:34;;;;;;;6.13;2.42;;;;;;;;;;5082120;28;20199;-84
2021/04/01 14:46:59;;;;;;;7.32;2.63;;;;;;;;;;5086973;28;20189;-84
2021/04/01 14:49:25;;;;;;;11.88;2.60;;;;;;;;;;5088929;28;20231;-82
2021/04/01 14:51:52;;;;;;;4.80;1.95;;;;;;;;;;5087076;28;20188;-80
2021/04/01 14:54:29;;;;;;;5.88;2.60;;;;;;;;;;5086824;28;20293;-80
2021/04/01 14:57:04;;;;;;;3.78;1.80;;;;;;;;;;5079589;28;20197;-80
2021/04/01 14:59:32;;;;;;;5.22;2.30;;;;;;;;;;5086085;28;20213;-79
2021/04/01 15:02:02;;;;;;;7.68;2.42;;;;;;;;;;5087054;28;20204;-81
2021/04/01 15:04:29;;;;;;;6.35;2.00;;;;;;;;;;5087068;28;20637;-80
2021/04/01 15:06:55;;;;;;;7.53;2.60;;;;;;;;;;5089323;28;20176;-79
2021/04/01 15:09:21;;;;;;;6.43;2.20;;;;;;;;;;5092032;28;20217;-80
2021/04/01 15:11:48;;;;;;;3.97;1.90;;;;;;;;;;5088911;28;20271;-78
2021/04/01 15:14:14;;;;;;;3.40;1.87;;;;;;;;;;5090015;28;20656;-80
2021/04/01 15:16:40;;;;;;;4.65;2.05;;;;;;;;;;5086927;28;20212;-79
2021/04/01 15:19:06;;;;;;;2.67;1.70;;;;;;;;;;5087007;28;20215;-79
2021/04/01 15:21:32;;;;;;;4.27;2.23;;;;;;;;;;5088015;28;20173;-80
2021/04/01 15:23:58;;;;;;;3.90;2.15;;;;;;;;;;5087238;28;20637;-81
2021/04/01 15:26:23;;;;;;;4.53;2.20;;;;;;;;;;5089098;28;20668;-79
2021/04/01 15:28:49;;;;;;;4.07;1.98;;;;;;;;;;5072684;28;20243;-79
2021/04/01 15:31:16;;;;;;;4.07;2.00;;;;;;;;;;5092198;28;20180;-79
2021/04/01 15:33:42;;;;;;;3.97;2.17;;;;;;;;;;5092623;28;20208;-81
2021/04/01 15:36:07;;;;;;;3.35;2.10;;;;;;;;;;5091061;28;20243;-80
2021/04/01 15:38:32;;;;;;;8.48;2.58;;;;;;;;;;5076680;28;20220;-79
2021/04/01 15:40:58;;;;;;;3.42;2.65;;;;;;;;;;5092931;28;20189;-80
2021/04/01 15:43:24;;;;;;;7.57;2.80;;;;;;;;;;5087025;28;20196;-80
2021/04/01 15:45:49;;;;;;;4.00;2.83;;;;;;;;;;5088728;28;20268;-79
2021/04/01 15:48:15;;;;;;;4.63;2.58;;;;;;;;;;5089717;28;20299;-80
2021/04/01 15:50:41;;;;;;;5.90;2.60;;;;;;;;;;5081996;28;20221;-80
2021/04/01 15:53:08;;;;;;;3.35;2.65;;;;;;;;;;5085669;28;20223;-79
2021/04/01 15:55:34;;;;;;;5.77;2.70;;;;;;;;;;5088555;28;20212;-80
2021/04/01 15:57:59;;;;;;;3.57;2.70;;;;;;;;;;5075132;28;20255;-79
2021/04/01 16:00:25;;;;;;;6.40;2.87;;;;;;;;;;5085278;28;20734;-80
2021/04/01 16:02:53;;;;;;;3.53;2.80;;;;;;;;;;5088766;28;20188;-79
2021/04/01 16:05:18;;;;;;;2.83;2.53;;;;;;;;;;5091017;28;20189;-80
2021/04/01 16:07:43;;;;;;;3.27;2.33;;;;;;;;;;5091082;28;20283;-79
2021/04/01 16:10:09;;;;;;;2.70;2.40;;;;;;;;;;5090938;28;20219;-80
2021/04/01 16:12:35;;;;;;;8.93;2.43;;;;;;;;;;5086470;28;20197;-79
2021/04/01 16:15:00;;;;;;;4.53;2.13;;;;;;;;;;5092047;28;20176;-79
2021/04/01 16:17:26;;;;;;;3.27;2.10;;;;;;;;;;5091831;28;20287;-78
2021/04/01 16:19:51;;;;;;;2.83;2.20;;;;;;;;;;5084234;28;20279;-79
2021/04/01 16:22:20;;;;;;;3.07;2.27;;;;;;;;;;5085862;28;20282;-80
2021/04/01 16:24:46;;;;;;;3.13;2.43;;;;;;;;;;5081737;28;20222;-80